Time;durP1;ratioP1;P1;durP2;ratioP2;P2;SDS_P1;SDS_P2;PMS_P1;PMS_P2;Temp;Humidity;BMP_temperature;BMP_pressure;BME280_temperature;BME280_humidity;BME280_pressure;Samples;Min_cycle;Max_cycle;Signal;HPM_P1;HPM_P2
2021/01/22 00:01:00;;;;;;;1.70;1.60;;;;;;;5.60;80.64;94569.63;5110900;28;20032;-75
2021/01/22 00:03:32;;;;;;;1.45;1.30;;;;;;;5.56;79.74;94560.72;5101507;28;20048;-76
2021/01/22 00:06:04;;;;;;;1.67;1.30;;;;;;;5.52;79.51;94582.22;5080815;28;20058;-75
2021/01/22 00:08:59;;;;;;;2.58;1.67;;;;;;;5.46;81.30;94561.34;5103225;28;20052;-73
2021/01/22 00:11:32;;;;;;;2.10;1.50;;;;;;;5.43;80.92;94563.59;5080333;28;20047;-72
2021/01/22 00:14:01;;;;;;;2.00;1.70;;;;;;;5.41;79.96;94556.03;5100090;28;20507;-73
2021/01/22 00:16:30;;;;;;;4.70;2.05;;;;;;;5.35;80.13;94551.75;5109809;28;20044;-72
2021/01/22 00:19:05;;;;;;;1.77;1.50;;;;;;;5.32;79.77;94548.84;5107632;28;20047;-73
2021/01/22 00:21:37;;;;;;;3.08;2.08;;;;;;;5.25;80.33;94543.78;5110036;28;20047;-73
2021/01/22 00:24:11;;;;;;;;;;;;;;;5.16;82.97;94545.94;5107625;28;20048;-73
2021/01/22 00:26:37;;;;;;;2.10;1.75;;;;;;;5.11;80.47;94539.88;5109608;28;20374;-72
2021/01/22 00:29:09;;;;;;;2.17;1.65;;;;;;;5.07;80.87;94542.13;5101250;28;20441;-73
2021/01/22 00:31:41;;;;;;;3.05;1.60;;;;;;;5.02;81.94;94536.84;5091355;28;20048;-72
2021/01/22 00:34:27;;;;;;;1.88;1.77;;;;;;;4.98;80.96;94536.50;5093132;28;20044;-72
2021/01/22 00:36:53;;;;;;;2.70;1.90;;;;;;;4.95;81.28;94529.16;5100499;28;20412;-73
2021/01/22 00:39:19;;;;;;;2.67;1.77;;;;;;;4.94;81.45;94522.41;5087394;28;20052;-72
2021/01/22 00:41:46;;;;;;;4.07;2.30;;;;;;;4.95;81.96;94515.41;5077327;28;20044;-72
2021/01/22 00:44:12;;;;;;;1.88;1.48;;;;;;;4.98;82.38;94512.34;5076648;28;20056;-72
2021/01/22 00:46:38;;;;;;;1.92;1.70;;;;;;;4.99;82.75;94501.72;5096319;28;20036;-72
2021/01/22 00:49:04;;;;;;;2.25;1.30;;;;;;;5.03;82.49;94491.66;5090704;28;20631;-72
2021/01/22 00:51:30;;;;;;;2.08;1.35;;;;;;;5.07;82.32;94490.19;5077597;28;20063;-72
2021/01/22 00:53:57;;;;;;;1.25;1.00;;;;;;;5.07;82.24;94492.78;5086432;28;20051;-72
2021/01/22 00:56:23;;;;;;;1.20;1.10;;;;;;;5.15;82.36;94499.44;5094881;28;20055;-72
2021/01/22 00:58:49;;;;;;;1.05;0.95;;;;;;;5.18;82.24;94488.56;5058275;28;20036;-72
2021/01/22 01:01:16;;;;;;;1.00;0.95;;;;;;;5.21;82.01;94490.72;5096001;28;20036;-72
2021/01/22 01:03:43;;;;;;;2.03;0.98;;;;;;;5.23;82.15;94491.25;5092506;28;20392;-73
2021/01/22 01:06:09;;;;;;;1.80;1.40;;;;;;;5.24;81.87;94485.81;5094545;28;20396;-73
2021/01/22 01:08:35;;;;;;;1.92;1.25;;;;;;;5.27;81.72;94489.75;5071110;28;20052;-72
2021/01/22 01:11:02;;;;;;;2.33;1.75;;;;;;;5.27;81.71;94479.34;5078039;28;20051;-73
2021/01/22 01:13:28;;;;;;;1.73;1.13;;;;;;;5.27;81.56;94482.78;5081056;28;20033;-72
2021/01/22 01:15:54;;;;;;;1.17;0.73;;;;;;;5.25;81.58;94464.03;5067989;28;20047;-72
2021/01/22 01:18:21;;;;;;;2.17;0.90;;;;;;;5.28;81.80;94462.75;5084699;28;20393;-72
2021/01/22 01:20:47;;;;;;;1.17;0.80;;;;;;;5.31;81.50;94461.50;5087569;28;20033;-72
2021/01/22 01:23:14;;;;;;;1.00;0.80;;;;;;;5.32;81.35;94471.66;5092931;28;20043;-72
2021/01/22 01:25:41;;;;;;;1.17;1.10;;;;;;;5.34;81.44;94484.44;5089776;28;20048;-72
2021/01/22 01:28:08;;;;;;;1.65;1.00;;;;;;;5.34;81.51;94482.63;5092408;28;20044;-72
2021/01/22 01:30:35;;;;;;;0.85;0.70;;;;;;;5.36;81.41;94482.41;5083433;28;20401;-73
2021/01/22 01:33:03;;;;;;;1.60;0.75;;;;;;;5.37;81.65;94491.75;5094529;28;20055;-72
2021/01/22 01:35:29;;;;;;;0.98;0.88;;;;;;;5.38;81.29;94498.53;5086581;28;20047;-73
2021/01/22 01:37:55;;;;;;;1.40;0.85;;;;;;;5.38;81.40;94493.34;5094652;28;20059;-72
2021/01/22 01:40:22;;;;;;;0.93;0.88;;;;;;;5.37;81.44;94489.94;5079964;28;20041;-72
2021/01/22 01:42:48;;;;;;;1.48;0.90;;;;;;;5.35;81.37;94491.97;5091024;28;20062;-73
2021/01/22 01:45:16;;;;;;;1.45;1.08;;;;;;;5.33;81.44;94481.03;5091595;28;20408;-73
2021/01/22 01:47:43;;;;;;;2.15;0.90;;;;;;;5.31;81.40;94483.06;5075293;28;20385;-73
2021/01/22 01:50:11;;;;;;;1.10;0.90;;;;;;;5.32;81.43;94491.69;5076740;28;20040;-72
2021/01/22 01:52:38;;;;;;;2.15;0.70;;;;;;;5.26;81.37;94481.19;5054915;28;20040;-72
2021/01/22 01:55:05;;;;;;;1.75;1.08;;;;;;;5.25;81.55;94492.59;5092245;28;20154;-73
2021/01/22 01:57:32;;;;;;;1.73;1.00;;;;;;;5.20;81.49;94489.91;5092282;28;20061;-73
2021/01/22 02:00:00;;;;;;;1.08;0.80;;;;;;;5.16;81.63;94486.19;5071349;28;20059;-72
2021/01/22 02:02:26;;;;;;;1.00;0.90;;;;;;;5.13;81.70;94486.66;5092989;28;20035;-73
2021/01/22 02:04:55;;;;;;;1.00;0.93;;;;;;;5.12;81.66;94485.06;5071215;28;20044;-72
2021/01/22 02:07:22;;;;;;;1.42;1.08;;;;;;;5.11;81.80;94488.69;5093577;28;20036;-72
2021/01/22 02:09:48;;;;;;;0.90;0.90;;;;;;;5.06;81.82;94492.00;5092444;28;20044;-72
2021/01/22 02:12:15;;;;;;;1.05;0.88;;;;;;;5.06;81.82;94484.22;5075380;28;20396;-73
2021/01/22 02:14:43;;;;;;;1.42;0.90;;;;;;;5.07;81.96;94487.59;5093480;28;20059;-72
2021/01/22 02:17:10;;;;;;;2.75;1.00;;;;;;;5.08;81.82;94487.38;5093711;28;20491;-72
2021/01/22 02:20:04;;;;;;;1.00;0.90;;;;;;;5.08;81.89;94494.34;5093126;28;20055;-72
2021/01/22 02:22:31;;;;;;;1.13;0.70;;;;;;;5.06;81.77;94493.78;5093359;28;20048;-73
2021/01/22 02:24:59;;;;;;;1.10;1.00;;;;;;;5.07;81.75;94492.78;5093297;28;20391;-73
2021/01/22 02:27:26;;;;;;;1.48;0.98;;;;;;;5.06;81.64;94493.78;5093438;28;20424;-73
2021/01/22 02:29:53;;;;;;;2.88;1.23;;;;;;;5.08;81.72;94495.16;5091413;28;20048;-72
2021/01/22 02:32:20;;;;;;;1.52;1.00;;;;;;;5.11;81.56;94493.13;5094253;28;20040;-72
2021/01/22 02:34:49;;;;;;;2.95;0.90;;;;;;;5.13;81.30;94485.88;5092553;28;20052;-72
2021/01/22 02:37:18;;;;;;;1.92;1.13;;;;;;;5.17;81.16;94481.78;5092688;28;20071;-73
2021/01/22 02:39:50;;;;;;;2.47;1.15;;;;;;;5.17;80.99;94487.00;5092601;28;20400;-73
2021/01/22 02:42:17;;;;;;;2.08;1.10;;;;;;;5.17;80.97;94479.97;5093804;28;20373;-72
2021/01/22 02:44:44;;;;;;;2.17;1.10;;;;;;;5.18;80.70;94480.75;5075927;28;20036;-72
2021/01/22 02:47:13;;;;;;;3.50;1.10;;;;;;;5.16;80.72;94475.78;5092580;28;20047;-72
2021/01/22 02:49:41;;;;;;;1.33;1.20;;;;;;;5.14;80.49;94480.44;5092724;28;20055;-72
2021/01/22 02:52:08;;;;;;;3.40;1.45;;;;;;;5.11;80.60;94480.13;5092713;28;20499;-73
2021/01/22 02:54:34;;;;;;;2.15;0.80;;;;;;;5.05;80.55;94468.84;5084411;28;20041;-72
2021/01/22 02:57:21;;;;;;;1.80;1.17;;;;;;;5.01;80.31;94476.31;5077556;28;20060;-73
2021/01/22 03:00:06;;;;;;;2.22;1.20;;;;;;;4.96;80.39;94478.03;5083364;28;20054;-73
2021/01/22 03:02:53;;;;;;;4.88;1.27;;;;;;;4.91;79.97;94473.50;5080762;28;20048;-73
2021/01/22 03:05:24;;;;;;;6.05;1.25;;;;;;;4.87;80.52;94465.41;5089230;28;20040;-72
2021/01/22 03:07:50;;;;;;;4.75;1.10;;;;;;;4.87;80.71;94481.00;5078626;28;20036;-72
2021/01/22 03:10:19;;;;;;;2.38;1.40;;;;;;;4.84;80.50;94485.84;5087521;28;20465;-72
2021/01/22 03:12:48;;;;;;;3.13;1.00;;;;;;;4.83;80.40;94479.06;5086891;28;20071;-73
2021/01/22 03:15:19;;;;;;;4.13;1.35;;;;;;;4.81;80.47;94484.50;5086975;28;20047;-73
2021/01/22 03:17:45;;;;;;;6.30;1.30;;;;;;;4.81;80.72;94497.47;5073830;28;20056;-72
2021/01/22 03:20:14;;;;;;;2.70;1.20;;;;;;;4.82;80.75;94506.84;5083557;28;20044;-72
2021/01/22 03:22:40;;;;;;;2.45;1.27;;;;;;;4.81;80.56;94483.72;5089648;28;20067;-74
2021/01/22 03:25:10;;;;;;;3.20;1.30;;;;;;;4.78;80.68;94490.13;5089188;28;20400;-73
2021/01/22 03:27:36;;;;;;;2.00;1.15;;;;;;;4.78;80.55;94486.75;5090046;28;20048;-73
2021/01/22 03:30:04;;;;;;;2.10;1.48;;;;;;;4.77;80.95;94488.56;5089951;28;20044;-72
2021/01/22 03:32:31;;;;;;;3.03;1.20;;;;;;;4.78;80.60;94491.94;5091762;28;20048;-73
2021/01/22 03:34:57;;;;;;;2.53;1.13;;;;;;;4.78;80.92;94484.16;5088112;28;20405;-72
2021/01/22 03:37:23;;;;;;;3.35;1.20;;;;;;;4.80;80.72;94487.31;5092992;28;20046;-72
2021/01/22 03:39:49;;;;;;;2.72;1.10;;;;;;;4.79;80.83;94483.94;5082786;28;20080;-72
2021/01/22 03:42:16;;;;;;;5.00;1.15;;;;;;;4.81;80.78;94481.13;5090706;28;20432;-72
2021/01/22 03:44:42;;;;;;;7.30;1.35;;;;;;;4.82;80.80;94480.09;5071586;28;20420;-73
2021/01/22 03:47:08;;;;;;;4.25;1.27;;;;;;;4.83;80.57;94473.88;5093178;28;20040;-73
2021/01/22 03:49:34;;;;;;;2.08;1.00;;;;;;;4.83;80.66;94466.88;5078329;28;20043;-73
2021/01/22 03:52:00;;;;;;;4.03;1.80;;;;;;;4.83;80.66;94481.66;5074822;28;20039;-73
2021/01/22 03:54:27;;;;;;;2.13;1.30;;;;;;;4.82;80.69;94480.88;5088338;28;20480;-72
2021/01/22 03:56:54;;;;;;;1.50;1.20;;;;;;;4.83;80.46;94473.88;5074827;28;20051;-73
2021/01/22 03:59:20;;;;;;;5.88;1.40;;;;;;;4.85;80.47;94474.44;5087503;28;20044;-73
2021/01/22 04:01:46;;;;;;;7.32;1.60;;;;;;;4.86;80.38;94456.03;5074746;28;20047;-72
2021/01/22 04:04:13;;;;;;;1.75;1.15;;;;;;;4.87;80.24;94459.41;5089044;28;20040;-72
2021/01/22 04:06:39;;;;;;;3.40;1.30;;;;;;;4.90;80.22;94458.19;5075087;28;20040;-72
2021/01/22 04:09:05;;;;;;;3.47;1.25;;;;;;;4.92;80.21;94456.13;5082603;28;20040;-72
2021/01/22 04:11:32;;;;;;;3.13;1.30;;;;;;;4.93;80.13;94447.31;5085740;28;20063;-72
2021/01/22 04:13:58;;;;;;;6.88;1.65;;;;;;;4.95;80.04;94451.25;5084031;28;20036;-73
2021/01/22 04:16:25;;;;;;;2.78;1.17;;;;;;;4.96;79.86;94449.47;5095573;28;20510;-73
2021/01/22 04:18:51;;;;;;;2.70;1.25;;;;;;;4.95;79.84;94442.69;5092106;28;20055;-73
2021/01/22 04:21:17;;;;;;;5.25;1.13;;;;;;;4.94;80.01;94444.50;5087837;28;20052;-72
2021/01/22 04:23:43;;;;;;;3.22;1.23;;;;;;;4.93;79.91;94445.50;5086861;28;20424;-73
2021/01/22 04:26:09;;;;;;;4.22;1.30;;;;;;;4.92;79.87;94441.34;5090406;28;20055;-72
2021/01/22 04:28:35;;;;;;;3.45;1.60;;;;;;;4.88;79.72;94438.41;5076896;28;20048;-72
2021/01/22 04:31:02;;;;;;;3.38;1.30;;;;;;;4.87;79.69;94439.44;5078036;28;20456;-72
2021/01/22 04:33:28;;;;;;;2.45;1.40;;;;;;;4.88;79.76;94448.00;5087422;28;20040;-73
2021/01/22 04:35:54;;;;;;;5.85;1.73;;;;;;;4.90;79.46;94429.59;5091206;28;20400;-72
2021/01/22 04:38:21;;;;;;;3.63;1.02;;;;;;;4.91;79.54;94434.56;5091791;28;20060;-72
2021/01/22 04:40:49;;;;;;;3.58;1.33;;;;;;;4.94;79.27;94417.75;5095200;28;20056;-73
2021/01/22 04:43:16;;;;;;;4.25;1.33;;;;;;;4.99;79.36;94423.78;5089383;28;20079;-73
2021/01/22 04:45:42;;;;;;;4.13;1.33;;;;;;;5.01;79.12;94419.16;5069192;28;20045;-73
2021/01/22 04:48:09;;;;;;;2.72;1.35;;;;;;;5.02;78.83;94410.34;5088863;28;20048;-72
2021/01/22 04:50:38;;;;;;;6.95;1.30;;;;;;;5.05;78.73;94409.88;5089150;28;20476;-72
2021/01/22 04:53:09;;;;;;;4.20;1.55;;;;;;;5.06;78.48;94415.84;5087787;28;20028;-73
2021/01/22 04:55:39;;;;;;;3.33;1.38;;;;;;;5.04;78.36;94405.72;5073541;28;20134;-72
2021/01/22 04:58:07;;;;;;;2.05;1.27;;;;;;;5.03;78.40;94414.53;5094209;28;20059;-72
2021/01/22 05:00:34;;;;;;;5.93;1.33;;;;;;;5.04;78.45;94415.28;5082866;28;20047;-72
2021/01/22 05:03:03;;;;;;;5.25;1.38;;;;;;;5.03;78.41;94406.72;5091337;28;20056;-73
2021/01/22 05:05:29;;;;;;;2.85;1.08;;;;;;;5.05;78.26;94414.28;5093470;28;20051;-72
2021/01/22 05:07:55;;;;;;;3.45;1.00;;;;;;;5.04;78.39;94400.53;5094794;28;20044;-72
2021/01/22 05:10:22;;;;;;;1.92;1.17;;;;;;;5.05;78.26;94394.28;5076741;28;20028;-75
2021/01/22 05:12:48;;;;;;;2.63;1.08;;;;;;;5.07;78.45;94388.88;5090219;28;20047;-73
2021/01/22 05:15:17;;;;;;;3.88;1.15;;;;;;;5.09;78.03;94379.81;5068835;28;20380;-73
2021/01/22 05:17:57;;;;;;;1.80;0.98;;;;;;;5.09;77.95;94381.63;5091263;28;20044;-73
2021/01/22 05:20:29;;;;;;;4.20;1.23;;;;;;;5.07;77.96;94381.84;5078707;28;20037;-73
2021/01/22 05:22:56;;;;;;;1.42;0.80;;;;;;;5.06;78.20;94390.69;5089976;28;20036;-74
2021/01/22 05:25:23;;;;;;;2.45;0.80;;;;;;;5.03;78.44;94401.53;5088662;28;20059;-72
2021/01/22 05:27:52;;;;;;;1.05;0.75;;;;;;;5.03;78.21;94391.13;5074706;28;20036;-73
2021/01/22 05:30:20;;;;;;;1.77;0.75;;;;;;;5.04;78.49;94404.91;5094350;28;20476;-72
2021/01/22 05:32:46;;;;;;;2.10;0.95;;;;;;;5.04;78.22;94399.72;5091035;28;20047;-73
2021/01/22 05:35:12;;;;;;;2.17;0.60;;;;;;;5.05;78.39;94407.28;5091597;28;20048;-73
2021/01/22 05:37:51;;;;;;;4.30;1.00;;;;;;;5.06;78.33;94392.47;5086184;28;20469;-73
2021/01/22 05:40:18;;;;;;;1.33;0.80;;;;;;;5.09;78.34;94395.41;5087872;28;20043;-72
2021/01/22 05:42:55;;;;;;;2.45;0.85;;;;;;;5.13;78.18;94395.72;5089744;28;20063;-72
2021/01/22 05:45:42;;;;;;;0.98;0.50;;;;;;;5.19;78.01;94394.81;5093114;28;20043;-72
2021/01/22 05:48:26;;;;;;;1.00;0.60;;;;;;;5.20;77.82;94382.59;5084810;28;20056;-72
2021/01/22 05:50:59;;;;;;;1.58;0.77;;;;;;;5.22;77.90;94390.94;5092304;28;20047;-72
2021/01/22 05:53:27;;;;;;;1.20;0.65;;;;;;;5.23;77.72;94380.31;5076074;28;20042;-73
2021/01/22 05:56:13;;;;;;;1.85;0.73;;;;;;;5.22;77.78;94383.91;5059023;28;20062;-72
2021/01/22 05:58:41;;;;;;;1.42;0.80;;;;;;;5.18;77.82;94379.44;5086008;28;20067;-72
2021/01/22 06:01:15;;;;;;;2.50;0.85;;;;;;;5.15;77.92;94375.50;5084260;28;20040;-72
2021/01/22 06:03:44;;;;;;;0.50;0.50;;;;;;;5.13;78.05;94374.16;5090434;28;20055;-72
2021/01/22 06:06:10;;;;;;;2.38;0.70;;;;;;;5.12;78.05;94370.75;5065646;28;20041;-73
2021/01/22 06:08:53;;;;;;;1.80;0.73;;;;;;;5.09;78.10;94369.44;5072699;28;20036;-72
2021/01/22 06:11:22;;;;;;;1.73;1.25;;;;;;;5.09;77.98;94366.03;5083274;28;20051;-74
2021/01/22 06:13:51;;;;;;;1.92;1.25;;;;;;;5.07;78.27;94366.28;5078300;28;20042;-72
2021/01/22 06:16:22;;;;;;;1.90;1.10;;;;;;;5.08;78.04;94367.06;5092519;28;20408;-72
2021/01/22 06:18:54;;;;;;;2.90;1.00;;;;;;;5.06;77.92;94374.28;5086313;28;20124;-72
2021/01/22 06:21:40;;;;;;;0.80;0.70;;;;;;;5.04;78.00;94371.94;5093658;28;20408;-72
2021/01/22 06:24:07;;;;;;;2.28;1.00;;;;;;;5.03;78.04;94361.78;5083769;28;20044;-73
2021/01/22 06:26:38;;;;;;;2.55;0.70;;;;;;;5.00;78.16;94368.25;5093458;28;20047;-72
2021/01/22 06:29:06;;;;;;;2.90;0.80;;;;;;;4.97;78.07;94370.50;5083213;28;20717;-72
2021/01/22 06:31:33;;;;;;;2.28;0.80;;;;;;;4.94;78.05;94371.00;5094701;28;20044;-72
2021/01/22 06:34:00;;;;;;;3.55;0.93;;;;;;;4.88;77.99;94368.28;5085602;28;20369;-72
2021/01/22 06:36:27;;;;;;;1.15;0.75;;;;;;;4.85;78.29;94381.75;5092990;28;20035;-74
2021/01/22 06:38:55;;;;;;;2.13;0.80;;;;;;;4.81;78.09;94378.03;5087328;28;20045;-74
2021/01/22 06:41:23;;;;;;;2.65;1.25;;;;;;;4.77;78.27;94376.94;5089134;28;20051;-72
2021/01/22 06:43:51;;;;;;;1.67;0.80;;;;;;;4.76;78.33;94384.94;5083046;28;20475;-72
2021/01/22 06:46:20;;;;;;;2.95;1.20;;;;;;;4.76;78.45;94382.34;5092385;28;20047;-72
2021/01/22 06:48:51;;;;;;;0.90;0.80;;;;;;;4.77;78.45;94381.34;5091034;28;20052;-72
2021/01/22 06:51:17;;;;;;;3.05;0.82;;;;;;;4.76;78.41;94384.94;5086607;28;20037;-72
2021/01/22 06:54:02;;;;;;;8.77;4.80;;;;;;;4.77;78.47;94389.13;5088596;28;20377;-72
2021/01/22 06:56:28;;;;;;;3.28;2.13;;;;;;;4.77;78.40;94383.94;5083167;28;20040;-75
2021/01/22 06:58:55;;;;;;;2.67;0.90;;;;;;;4.79;78.60;94380.06;5081107;28;20062;-75
2021/01/22 07:01:32;;;;;;;3.45;1.20;;;;;;;4.82;78.69;94381.41;5092485;28;20062;-75
2021/01/22 07:03:59;;;;;;;2.90;1.10;;;;;;;4.85;78.56;94380.94;5081078;28;20049;-76
2021/01/22 07:06:31;;;;;;;1.83;0.88;;;;;;;4.87;78.58;94377.13;5083167;28;20032;-75
2021/01/22 07:08:59;;;;;;;1.27;0.90;;;;;;;4.90;78.35;94375.06;5085208;28;20044;-75
2021/01/22 07:11:25;;;;;;;5.07;1.77;;;;;;;4.91;78.61;94377.41;5083693;28;20052;-75
2021/01/22 07:13:52;;;;;;;4.85;0.90;;;;;;;4.92;78.63;94373.03;5081808;28;20468;-75
2021/01/22 07:16:18;;;;;;;1.17;0.73;;;;;;;4.94;78.43;94373.59;5086107;28;20392;-72
2021/01/22 07:19:07;;;;;;;3.45;1.17;;;;;;;4.96;78.62;94377.53;5090840;28;20040;-72
2021/01/22 07:21:38;;;;;;;2.50;0.65;;;;;;;4.98;78.47;94378.06;5077691;28;20051;-75
2021/01/22 07:24:12;;;;;;;3.40;0.98;;;;;;;5.00;78.41;94383.03;5088065;28;20051;-75
2021/01/22 07:26:46;;;;;;;1.17;0.60;;;;;;;5.03;78.52;94383.34;5077649;28;20056;-75
2021/01/22 07:29:14;;;;;;;0.88;0.60;;;;;;;5.04;78.35;94378.94;5086616;28;20044;-72
2021/01/22 07:32:06;;;;;;;2.05;0.77;;;;;;;5.09;78.16;94376.44;5093349;28;20040;-72
2021/01/22 07:34:48;;;;;;;1.08;0.60;;;;;;;5.13;77.67;94372.34;5083038;28;20483;-72
2021/01/22 07:37:35;;;;;;;1.33;0.70;;;;;;;5.17;77.93;94375.28;5091192;28;20048;-72
2021/01/22 07:40:06;;;;;;;2.42;1.25;;;;;;;5.20;77.85;94375.56;5086745;28;20048;-73
2021/01/22 07:42:33;;;;;;;3.33;1.08;;;;;;;5.26;77.80;94384.25;5084399;28;20063;-76
2021/01/22 07:45:08;;;;;;;2.55;1.00;;;;;;;5.35;77.46;94387.25;5066228;28;20040;-75
2021/01/22 07:47:36;;;;;;;1.48;1.27;;;;;;;5.46;77.52;94400.19;5095087;28;20047;-72
2021/01/22 07:50:17;;;;;;;2.38;1.00;;;;;;;5.69;76.21;94388.84;5086353;28;20122;-72
2021/01/22 07:52:45;;;;;;;4.43;1.02;;;;;;;5.93;76.58;94388.66;5079586;28;20500;-73
2021/01/22 07:55:22;;;;;;;0.88;0.80;;;;;;;6.08;75.14;94386.28;5074049;28;20051;-72
2021/01/22 07:58:04;;;;;;;2.22;0.85;;;;;;;6.22;73.23;94391.16;5092864;28;20503;-73
2021/01/22 08:00:40;;;;;;;1.95;0.80;;;;;;;6.48;74.09;94385.19;5086807;28;20483;-73
2021/01/22 08:03:08;;;;;;;4.60;1.00;;;;;;;6.68;74.33;94387.28;5083744;28;20040;-72
2021/01/22 08:05:37;;;;;;;2.28;0.82;;;;;;;6.82;73.58;94389.47;5095391;28;20051;-73
2021/01/22 08:08:20;;;;;;;1.83;0.73;;;;;;;6.87;71.02;94384.34;5091479;28;20059;-73
2021/01/22 08:10:47;;;;;;;0.63;0.63;;;;;;;6.69;73.10;94381.00;5090920;28;20052;-72
2021/01/22 08:13:16;;;;;;;1.02;0.77;;;;;;;6.69;73.67;94395.84;5085484;28;20029;-72
2021/01/22 08:15:44;;;;;;;1.38;0.80;;;;;;;6.88;73.92;94388.50;5086070;28;20032;-73
2021/01/22 08:18:12;;;;;;;1.70;0.65;;;;;;;7.18;73.83;94385.44;5085408;28;20468;-73
2021/01/22 08:20:49;;;;;;;3.28;0.90;;;;;;;7.37;70.33;94385.03;5085962;28;20049;-72
2021/01/22 08:23:17;;;;;;;4.13;0.80;;;;;;;7.57;72.56;94381.81;5081421;28;20047;-75
2021/01/22 08:25:43;;;;;;;1.05;0.60;;;;;;;7.78;72.39;94374.94;5085866;28;20061;-75
2021/01/22 08:28:10;;;;;;;2.22;1.00;;;;;;;7.98;71.94;94367.25;5082592;28;20476;-75
2021/01/22 08:30:37;;;;;;;2.85;0.95;;;;;;;8.05;70.77;94367.00;5093063;28;20484;-75
2021/01/22 08:33:05;;;;;;;1.88;0.70;;;;;;;7.97;70.97;94355.22;5093410;28;20043;-75
2021/01/22 08:35:33;;;;;;;1.75;1.10;;;;;;;7.95;71.13;94362.50;5096072;28;20408;-75
2021/01/22 08:38:01;;;;;;;3.00;1.10;;;;;;;7.90;70.72;94368.50;5089717;28;20399;-75
2021/01/22 08:40:41;;;;;;;2.17;1.50;;;;;;;7.96;68.10;94358.06;5095881;28;20048;-75
2021/01/22 08:43:15;;;;;;;1.52;0.88;;;;;;;8.06;70.60;94363.34;5088535;28;20045;-72
2021/01/22 08:46:02;;;;;;;3.83;1.40;;;;;;;8.18;70.50;94356.13;5076565;28;20395;-73
2021/01/22 08:48:29;;;;;;;1.65;0.75;;;;;;;8.31;70.05;94358.25;5095901;28;20043;-73
2021/01/22 08:50:59;;;;;;;3.17;1.10;;;;;;;8.59;68.62;94350.28;5086366;28;20051;-73
2021/01/22 08:53:26;;;;;;;1.70;1.08;;;;;;;8.78;69.13;94343.56;5087283;28;20055;-72
2021/01/22 08:56:15;;;;;;;1.80;0.95;;;;;;;8.86;65.28;94337.03;5088532;28;20048;-73
2021/01/22 08:59:01;;;;;;;1.75;1.15;;;;;;;8.84;65.00;94334.69;5086141;28;20416;-72
2021/01/22 09:01:57;;;;;;;4.20;0.80;;;;;;;8.84;65.71;94336.50;5096135;28;20039;-72
2021/01/22 09:04:27;;;;;;;1.33;0.90;;;;;;;8.89;68.11;94355.59;5094985;28;20055;-72
2021/01/22 09:07:04;;;;;;;3.83;0.60;;;;;;;8.79;65.34;94339.13;5095958;28;20028;-73
2021/01/22 09:09:41;;;;;;;1.27;0.80;;;;;;;8.66;65.12;94332.56;5086048;28;20040;-73
2021/01/22 09:12:15;;;;;;;1.30;0.80;;;;;;;8.54;66.26;94345.84;5095385;28;20484;-73
2021/01/22 09:14:45;;;;;;;1.35;0.77;;;;;;;8.52;67.04;94350.53;5095545;28;20035;-73
2021/01/22 09:17:24;;;;;;;1.67;0.88;;;;;;;8.60;65.23;94333.59;5094377;28;20469;-73
2021/01/22 09:20:02;;;;;;;4.97;0.95;;;;;;;8.71;65.80;94328.16;5092964;28;20044;-73
2021/01/22 09:22:30;;;;;;;1.42;0.95;;;;;;;8.82;66.38;94336.78;5092290;28;20043;-72
2021/01/22 09:25:03;;;;;;;1.50;0.60;;;;;;;8.85;66.38;94344.09;5091135;28;20052;-75
2021/01/22 09:27:30;;;;;;;1.90;0.68;;;;;;;9.00;66.45;94343.34;5093517;28;20059;-73
2021/01/22 09:29:56;;;;;;;1.05;0.40;;;;;;;9.16;66.38;94340.75;5074852;28;20036;-72
2021/01/22 09:32:26;;;;;;;2.20;0.90;;;;;;;9.29;66.17;94351.47;5088400;28;20036;-73
2021/01/22 09:34:53;;;;;;;1.45;0.70;;;;;;;9.39;65.85;94348.09;5088130;28;20040;-74
2021/01/22 09:37:19;;;;;;;1.08;0.60;;;;;;;9.53;65.72;94357.00;5091360;28;20380;-73
2021/01/22 09:39:45;;;;;;;2.22;0.73;;;;;;;9.47;65.03;94354.63;5091537;28;20471;-73
2021/01/22 09:42:11;;;;;;;3.05;0.80;;;;;;;9.24;64.58;94348.06;5090363;28;20052;-73
2021/01/22 09:44:38;;;;;;;2.20;0.75;;;;;;;9.01;64.96;94349.34;5093992;28;20048;-72
2021/01/22 09:47:04;;;;;;;1.98;0.93;;;;;;;8.80;64.86;94349.31;5094171;28;20052;-72
2021/01/22 09:49:31;;;;;;;0.77;0.70;;;;;;;8.63;65.02;94341.72;5094333;28;20040;-73
2021/01/22 09:51:57;;;;;;;1.02;0.70;;;;;;;8.60;65.57;94346.66;5085450;28;20056;-73
2021/01/22 09:54:24;;;;;;;1.10;0.90;;;;;;;8.50;65.44;94339.56;5093138;28;20036;-73
2021/01/22 09:56:50;;;;;;;1.27;0.80;;;;;;;8.44;65.59;94335.34;5091153;28;20047;-72
2021/01/22 09:59:16;;;;;;;2.05;0.70;;;;;;;8.42;65.63;94333.03;5086719;28;20044;-72
2021/01/22 10:01:43;;;;;;;0.93;0.60;;;;;;;8.46;65.64;94339.31;5075710;28;20048;-73
2021/01/22 10:04:09;;;;;;;4.03;0.90;;;;;;;8.57;65.69;94327.06;5080169;28;20512;-73
2021/01/22 10:06:36;;;;;;;2.15;0.98;;;;;;;8.67;65.43;94318.44;5093726;28;20063;-73
2021/01/22 10:09:02;;;;;;;1.90;0.70;;;;;;;8.76;65.24;94314.31;5077272;28;20055;-73
2021/01/22 10:11:29;;;;;;;0.90;0.80;;;;;;;8.77;65.07;94312.47;5086876;28;20048;-73
2021/01/22 10:13:56;;;;;;;2.53;0.90;;;;;;;8.74;65.04;94301.47;5064686;28;20044;-73
2021/01/22 10:16:26;;;;;;;2.80;1.00;;;;;;;8.79;64.42;94297.31;5091244;28;20468;-73
2021/01/22 10:18:53;;;;;;;3.15;0.85;;;;;;;8.87;64.72;94299.41;5083786;28;20038;-73
2021/01/22 10:21:21;;;;;;;2.28;1.02;;;;;;;9.00;64.77;94298.91;5086516;28;20044;-73
2021/01/22 10:23:51;;;;;;;1.23;1.13;;;;;;;9.23;64.74;94294.97;5088612;28;20408;-72
2021/01/22 10:26:20;;;;;;;1.05;0.80;;;;;;;9.41;64.52;94300.72;5086442;28;20059;-73
2021/01/22 10:28:49;;;;;;;3.85;1.30;;;;;;;9.58;64.38;94292.63;5073293;28;20062;-72
2021/01/22 10:31:16;;;;;;;3.90;1.40;;;;;;;9.80;63.98;94300.94;5097373;28;20048;-73
2021/01/22 10:33:46;;;;;;;3.97;1.10;;;;;;;9.92;63.79;94288.34;5088664;28;20381;-73
2021/01/22 10:36:14;;;;;;;2.45;1.20;;;;;;;10.04;63.63;94293.28;5068175;28;20039;-75
2021/01/22 10:38:41;;;;;;;1.00;0.70;;;;;;;10.09;63.53;94297.72;5051666;28;20043;-73
2021/01/22 10:41:08;;;;;;;1.08;0.82;;;;;;;10.10;62.92;94289.59;5078753;28;20037;-73
2021/01/22 10:43:35;;;;;;;0.63;0.60;;;;;;;10.05;62.87;94292.22;5084368;28;20048;-73
2021/01/22 10:46:02;;;;;;;2.63;1.20;;;;;;;10.22;63.13;94285.88;5082548;28;20062;-72
2021/01/22 10:48:28;;;;;;;1.70;0.77;;;;;;;10.45;62.98;94279.25;5086464;28;20031;-73
2021/01/22 10:50:55;;;;;;;0.95;0.68;;;;;;;10.68;62.54;94277.84;5086954;28;20052;-73
2021/01/22 10:53:23;;;;;;;0.63;0.63;;;;;;;10.85;62.07;94277.47;5093039;28;20396;-73
2021/01/22 10:55:50;;;;;;;1.48;0.90;;;;;;;10.95;61.70;94264.28;5093714;28;20043;-73
2021/01/22 10:58:17;;;;;;;1.98;1.00;;;;;;;10.91;61.37;94258.78;5092736;28;20032;-72
2021/01/22 11:00:43;;;;;;;1.88;0.70;;;;;;;11.03;61.27;94268.16;5093681;28;20028;-73
2021/01/22 11:03:09;;;;;;;0.70;0.68;;;;;;;11.00;61.03;94261.63;5094233;28;20039;-73
2021/01/22 11:05:36;;;;;;;2.22;0.82;;;;;;;10.99;60.48;94267.16;5092660;28;20036;-73
2021/01/22 11:08:03;;;;;;;1.25;0.95;;;;;;;10.90;60.68;94259.09;5074766;28;20412;-72
2021/01/22 11:10:29;;;;;;;1.02;0.90;;;;;;;10.96;60.91;94247.47;5092717;28;20515;-73
2021/01/22 11:12:56;;;;;;;1.95;1.05;;;;;;;11.04;60.66;94256.59;5093694;28;20029;-72
2021/01/22 11:15:22;;;;;;;1.67;0.90;;;;;;;11.08;60.52;94244.53;5091960;28;20473;-73
2021/01/22 11:17:49;;;;;;;1.65;0.95;;;;;;;10.98;60.29;94250.63;5094095;28;20039;-72
2021/01/22 11:20:17;;;;;;;1.65;1.10;;;;;;;10.85;60.27;94251.25;5092174;28;20048;-73
2021/01/22 11:22:46;;;;;;;1.52;1.00;;;;;;;10.73;60.19;94251.56;5092059;28;20051;-73
2021/01/22 11:25:17;;;;;;;1.75;1.08;;;;;;;10.72;60.33;94252.66;5092511;28;20074;-73
2021/01/22 11:27:44;;;;;;;1.65;0.82;;;;;;;10.73;60.36;94256.81;5093495;28;20044;-73
2021/01/22 11:30:11;;;;;;;2.42;1.15;;;;;;;10.68;60.39;94249.78;5092418;28;20416;-73
2021/01/22 11:32:37;;;;;;;2.28;1.00;;;;;;;10.64;60.40;94240.88;5092436;28;20728;-73
2021/01/22 11:35:06;;;;;;;1.48;1.00;;;;;;;10.55;60.47;94237.28;5093987;28;20036;-72
2021/01/22 11:37:32;;;;;;;2.33;0.98;;;;;;;10.53;60.57;94244.63;5091646;28;20044;-73
2021/01/22 11:39:58;;;;;;;2.08;0.90;;;;;;;10.51;60.66;94237.03;5093508;28;20047;-73
2021/01/22 11:42:24;;;;;;;2.70;1.00;;;;;;;10.51;60.62;94238.88;5074145;28;20044;-73
2021/01/22 11:44:51;;;;;;;1.83;1.00;;;;;;;10.50;60.78;94238.09;5093726;28;20490;-73
2021/01/22 11:47:17;;;;;;;0.90;0.90;;;;;;;10.51;60.78;94242.28;5094963;28;20396;-73
2021/01/22 11:49:43;;;;;;;1.23;1.00;;;;;;;10.61;60.90;94238.03;5093178;28;20052;-72
2021/01/22 11:52:10;;;;;;;2.88;1.25;;;;;;;10.74;60.78;94240.81;5091951;28;20047;-73